Spot Road, Arizona (BMGR) Weather observations

Data are for 10 minute period ending at time listed.
 Day   Time   Solar   Ave.   Ave.  Ave.  Vector  Max.   Total    
  of    of     Rad.   Air    Rel.  Wind   Wind   Wind  Precip.   
Year   Day            Temp.  Hum.  Speed  Dir.   Gust            
2026   (MST)  Kw/m2    F      %     mph   deg.    mph    in.     
-----------------------------------------------------------------
 125    2:35   0.00   64.4    40    4.9   216     6.5    0.00 
 125    2:40   0.00   64.1    41    5.7   217     7.1    0.00 
 125    2:45   0.00   63.9    41    6.3   224     8.2    0.00 
 125    2:50   0.00   63.7    41    7.3   230    10.5    0.00 
 125    2:55   0.00   63.7    41    7.8   228     9.9    0.00 
 125    3:00   0.00   63.1    42    7.2   227     8.2    0.00 
 125    3:05   0.00   62.9    42    8.6   225    11.6    0.00 
 125    3:10   0.00   63.0    42    9.1   223    11.6    0.00 
 125    3:15   0.00   62.8    42    9.0   222    11.0    0.00 
 125    3:20   0.00   62.7    42   10.1   224    13.8    0.00 
 125    3:25   0.00   62.8    42   12.3   225    17.2    0.00 
 125    3:30   0.00   63.0    42   15.5   223    18.3    0.00 
 125    3:35   0.00   63.0    42   14.5   226    17.2    0.00 
 125    3:40   0.00   62.9    42   12.8   226    16.0    0.00 
 125    3:45   0.00   62.7    42   12.2   227    14.9    0.00 
 125    3:50   0.00   62.7    43   11.3   222    15.5    0.00 
 125    3:55   0.00   62.7    43   10.3   220    14.4    0.00 
 125    4:00   0.00   62.7    43   10.8   217    13.3    0.00 
 125    4:05   0.00   62.7    44    9.7   212    13.3    0.00 
 125    4:10   0.00   62.7    44    9.2   207    11.6    0.00 
 125    4:15   0.00   62.6    44    9.9   210    12.7    0.00 
 125    4:20   0.00   62.5    44   11.7   216    15.5    0.00 
 125    4:25   0.00   62.3    45   12.7   217    17.2    0.00 
 125    4:30   0.00   62.2    45   14.0   221    16.6    0.00 
 125    4:35   0.00   62.1    46   14.3   216    18.3    0.00 
 125    4:40   0.00   62.0    46   13.0   213    16.0    0.00 
 125    4:45   0.00   61.9    46   13.0   212    16.6    0.00 
 125    4:50   0.00   61.8    46   12.5   210    16.6    0.00 
 125    4:55   0.00   61.8    46   12.1   205    14.9    0.00 
 125    5:00   0.00   61.8    46   12.8   202    16.0    0.00 
 125    5:05   0.00   61.7    46   12.1   204    17.2    0.00 
 125    5:10   0.00   61.7    46   12.9   204    18.3    0.00 
 125    5:15   0.00   61.7    46   12.7   211    15.5    0.00 
 125    5:20   0.00   61.7    46   12.3   212    15.5    0.00 
 125    5:25   0.00   61.6    46   11.8   216    16.0    0.00 
 125    5:30   0.00   61.5    47   10.3   219    15.5    0.00 
 125    5:35   0.00   61.4    47    7.9   215    11.0    0.00 
 125    5:40   0.00   61.4    47    9.0   215    12.1    0.00 
 125    5:45   0.00   61.4    47    9.4   212    13.3    0.00 
 125    5:50   0.00   61.5    47    7.2   213    10.5    0.00 
 125    5:55   0.00   61.6    47    6.6   216     9.9    0.00 
 125    6:00   0.01   61.6    46    7.1   217    11.0    0.00 
 125    6:05   0.01   61.7    46    8.9   221    11.6    0.00 
 125    6:10   0.01   61.8    46    9.1   227    12.1    0.00 
 125    6:15   0.02   61.9    46    8.7   229    11.0    0.00 
 125    6:20   0.03   62.0    46    9.7   225    11.6    0.00 
 125    6:25   0.03   62.1    46    8.8   223     9.9    0.00 
 125    6:30   0.04   62.1    46    8.9   226    11.0    0.00 
 125    6:35   0.06   62.3    46   10.4   226    12.7    0.00 
 125    6:40   0.07   62.4    46    9.9   222    12.7    0.00 
 125    6:45   0.06   62.4    46    9.8   220    12.7    0.00 
 125    6:50   0.06   62.4    46   10.1   222    14.4    0.00 
 125    6:55   0.07   62.3    46   12.3   223    16.0    0.00 
 125    7:00   0.13   62.3    46   13.5   224    18.3    0.00 
 125    7:05   0.19   62.6    46   13.0   219    16.0    0.00 
 125    7:10   0.14   62.6    46   13.5   218    17.2    0.00 
 125    7:15   0.15   62.7    45   13.5   225    16.6    0.00 
 125    7:20   0.18   63.0    45   14.0   229    17.7    0.00 
 125    7:25   0.19   63.2    45   12.9   232    16.6    0.00 
 125    7:30   0.17   63.4    44   10.6   230    15.5    0.00 
 125    7:35   0.26   63.6    44    9.4   223    13.8    0.00 
 125    7:40   0.33   64.1    44    9.8   227    13.8    0.00 
 125    7:45   0.36   64.4    43   10.8   226    15.5    0.00 
 125    7:50   0.26   64.5    43   10.7   231    14.9    0.00 
 125    7:55   0.19   64.4    43   11.4   221    13.3    0.00 
 125    8:00   0.18   64.5    42   11.6   222    15.5    0.00 
 125    8:05   0.18   64.5    42    9.9   223    15.5    0.00 
 125    8:10   0.36   64.7    42   11.5   227    14.4    0.00 
 125    8:15   0.25   64.9    41   11.3   224    16.0    0.00 
 125    8:20   0.24   64.9    41   11.4   222    17.2    0.00 
 125    8:25   0.28   65.4    40   11.8   220    17.2    0.00 
 125    8:30   0.30   65.8    40   11.6   216    16.0    0.00 
 125    8:35   0.31   65.7    40   12.6   217    17.7    0.00 
 125    8:40   0.29   65.7    40   14.8   218    18.9    0.00 
 125    8:45   0.25   65.4    40   15.9   221    20.5    0.00 
 125    8:50   0.25   65.4    40   15.6   224    20.5    0.00 
 125    8:55   0.52   65.7    40   16.6   224    19.4    0.00 
 125    9:00   0.31   65.9    40   18.7   226    21.6    0.00 
 125    9:05   0.22   66.0    40   16.8   223    21.1    0.00 
 125    9:10   0.29   66.0    40   20.4   229    25.6    0.00 
 125    9:15   0.50   66.6    39   20.5   230    26.1    0.00 
 125    9:20   0.15   66.4    39   19.2   228    24.4    0.00 
 125    9:25   0.18   66.3    40   17.4   234    23.3    0.00 
 125    9:30   0.17   66.4    40   17.5   231    22.8    0.00 
 125    9:35   0.16   66.5    39   16.8   233    21.1    0.00 
 125    9:40   0.20   66.9    39   17.5   234    25.0    0.00 
 125    9:45   0.67   67.7    38   16.2   212    23.3    0.00 
 125    9:50   0.77   69.0    37   15.7   210    23.9    0.00 
 125    9:55   0.76   68.3    38   15.9   214    23.3    0.00 
 125   10:00   0.74   68.2    38   16.4   214    24.4    0.00 
 125   10:05   0.75   68.7    37   16.3   217    24.4    0.00 
 125   10:10   0.75   68.7    37   15.3   211    18.9    0.00 
 125   10:15   0.76   68.9    37   12.3   227    18.3    0.00 
 125   10:20   0.77   69.6    36   12.6   221    19.4    0.00 
 125   10:25   0.78   70.1    34   12.6   238    22.2    0.00 
 125   10:30   0.79   70.2    33   18.4   224    25.0    0.00 
 125   10:35   0.80   70.2    34   18.9   227    25.6    0.00 
 125   10:40   0.81   69.9    35   18.7   220    24.4    0.00 
 125   10:45   0.83   70.4    35   16.5   224    25.6    0.00 
 125   10:50   0.84   70.4    34   16.5   224    24.4    0.00 
 125   10:55   0.84   70.6    35   15.5   216    21.6    0.00 
 125   11:00   0.86   70.6    35   14.8   236    21.6    0.00 
 125   11:05   0.67   70.6    35   16.3   247    23.3    0.00 
 125   11:10   0.88   70.8    35   15.8   243    25.6    0.00 
 125   11:15   0.81   71.6    34   17.3   242    23.3    0.00 
 125   11:20   0.90   71.3    34   14.6   222    20.0    0.00 
 125   11:25   1.01   71.5    34   18.9   238    25.0    0.00 
 125   11:30   0.62   71.8    33   12.1   224    20.0    0.00 
 125   11:35   0.63   71.7    33   14.3   216    22.2    0.00 
 125   11:40   0.39   71.6    33   12.2   233    20.0    0.00 
 125   11:45   0.78   72.4    32   16.4   211    21.6    0.00 
 125   11:50   0.60   71.8    33   13.1   223    20.0    0.00 
 125   11:55   0.55   72.5    32   14.2   253    21.6    0.00 
 125   12:00   0.47   73.1    30   13.8   214    22.8    0.00 
 125   12:05   0.39   72.0    32   15.7   199    23.3    0.00 
 125   12:10   0.39   71.9    31   14.1   219    18.9    0.00 
 125   12:15   0.35   71.8    32   13.5   238    17.2    0.00 
 125   12:20   0.70   71.8    31   14.8   246    22.8    0.00 
 125   12:25   0.29   72.7    30   14.2   221    25.6    0.00 
 125   12:30   0.52   72.2    30   14.7   223    24.4    0.00 
 125   12:35   1.13   73.4    30   15.1   226    25.0    0.00 
 125   12:40   1.10   73.7    29   20.6   227    26.7    0.00 
 125   12:45   0.79   74.0    29   16.0   239    25.0    0.00 
 125   12:50   0.82   74.2    28   13.5   240    22.2    0.00 
 125   12:55   0.66   73.7    29   17.3   248    24.4    0.00 
 125   13:00   0.70   73.1    29   13.8   230    18.3    0.00 
 125   13:05   0.88   74.0    29   15.9   219    23.3    0.00 
 125   13:10   0.72   74.0    28   14.3   218    20.5    0.00 
 125   13:15   0.42   73.8    29   10.3   200    18.3    0.00 
 125   13:20   0.39   73.0    30   12.6   213    21.6    0.00 
 125   13:25   1.05   73.8    29   12.8   216    18.9    0.00 
 125   13:30   0.58   73.8    29   11.7   231    20.5    0.00 
 125   13:35   1.07   73.9    29   15.9   235    25.6    0.00 
 125   13:40   0.61   74.1    28   15.7   253    20.5    0.00 
 125   13:45   0.86   73.8    28   14.2   246    19.4    0.00 
 125   13:50   0.92   74.1    28   10.6   238    19.4    0.00 
 125   13:55   0.95   75.3    27   16.2   223    30.0    0.00 
 125   14:00   0.62   75.1    27   23.2   230    30.6    0.00 
 125   14:05   0.64   74.7    27   14.8   236    23.3    0.00 
 125   14:10   0.43   73.6    28   12.9   228    18.9    0.00 
 125   14:15   0.74   74.1    28   11.8   237    18.9    0.00 
 125   14:20   0.43   75.3    27   14.2   213    20.5    0.00 
 125   14:25   0.95   75.8    26   16.5   231    22.8    0.00 
 125   14:30   0.68   74.8    27   15.8   244    21.1    0.00 
 125   14:35   0.23   74.8    27   14.2   251    19.4    0.00 
 125   14:40   0.56   74.9    27    8.7   250    14.4    0.00 
 125   14:45   0.51   74.9    27   19.3   218    31.1    0.00 
 125   14:50   0.86   75.0    27   19.4   229    27.2    0.00 
 125   14:55   0.79   74.6    28   14.8   224    26.7    0.00 
 125   15:00   0.78   74.8    28   15.1   224    20.5    0.00 
 125   15:05   0.76   75.6    27   17.0   218    25.6    0.00 
 125   15:10   0.75   75.7    27   16.7   220    25.0    0.00 
 125   15:15   0.73   76.3    27   17.2   225    25.6    0.00 
 125   15:20   0.71   76.0    27   14.0   219    24.4    0.00 
 125   15:25   0.63   76.0    28   16.2   222    22.2    0.00 
 125   15:30   0.65   75.5    28   15.1   215    22.8    0.00 
 125   15:35   0.68   75.7    27   16.0   237    23.3    0.00 
 125   15:40   0.66   76.5    27   17.3   230    26.1    0.00 
 125   15:45   0.65   75.7    27   18.3   227    26.1    0.00 
 125   15:50   0.60   75.3    28   10.3   241    16.6    0.00 
 125   15:55   0.61   75.7    27   15.5   244    22.2    0.00 
 125   16:00   0.60   75.8    26   16.7   229    28.4    0.00 
 125   16:05   0.59   75.8    26   17.9   238    23.3    0.00 
 125   16:10   0.57   76.5    25   16.2   226    21.1    0.00 
 125   16:15   0.56   76.6    25   16.7   216    24.4    0.00 
 125   16:20   0.54   76.5    24   17.9   219    25.0    0.00 
 125   16:25   0.52   76.8    24   14.6   220    21.1    0.00 
 125   16:30   0.43   76.6    24   15.2   226    20.0    0.00 
 125   16:35   0.47   76.0    24   14.4   234    21.6    0.00 
 125   16:40   0.43   75.9    24   13.5   242    18.9    0.00 
 125   16:45   0.43   76.0    24   17.6   228    22.2    0.00 
 125   16:50   0.38   76.2    23   19.2   208    22.8    0.00 
 125   16:55   0.42   75.7    23   13.0   194    21.1    0.00 
 125   17:00   0.41   76.1    23   14.9   200    22.2    0.00 
 125   17:05   0.39   76.4    23   16.5   224    22.8    0.00 
 125   17:10   0.35   76.6    23   16.0   229    21.1    0.00 
 125   17:15   0.36   76.2    24   13.2   225    20.0    0.00 
 125   17:20   0.35   76.3    24   15.3   232    20.5    0.00 
 125   17:25   0.33   76.5    24   14.1   227    17.7    0.00 
 125   17:30   0.26   76.4    24   11.2   210    15.5    0.00 
 125   17:35   0.22   75.9    24   14.1   210    20.0    0.00 
 125   17:40   0.07   75.2    24   13.8   221    19.4    0.00 
 125   17:45   0.19   75.4    25   13.0   223    16.0    0.00 
 125   17:50   0.21   75.6    24   10.1   244    14.4    0.00 
 125   17:55   0.23   75.6    25    8.5   234    12.1    0.00 
 125   18:00   0.21   76.0    24   10.2   209    16.0    0.00 
 125   18:05   0.15   75.9    24   11.6   204    14.9    0.00 
 125   18:10   0.17   75.8    24   11.7   212    18.9    0.00 
 125   18:15   0.16   75.7    24   10.0   233    16.6    0.00 
 125   18:20   0.14   75.8    24    8.7   212    14.4    0.00 
 125   18:25   0.13   75.7    24   11.3   202    14.4    0.00 
 125   18:30   0.11   75.4    25    9.7   198    12.1    0.00 
 125   18:35   0.10   75.8    25    6.9   232    10.5    0.00 
 125   18:40   0.08   75.4    25    8.5   212    12.1    0.00 
 125   18:45   0.07   75.1    25    7.7   221    11.0    0.00 
 125   18:50   0.06   75.3    25    6.5   221     9.9    0.00 
 125   18:55   0.05   75.2    25   10.0   234    14.9    0.00 
 125   19:00   0.04   74.8    26   15.7   225    19.4    0.00 
 125   19:05   0.03   74.5    26   16.2   236    22.8    0.00 
 125   19:10   0.02   74.2    26   13.8   244    19.4    0.00 
 125   19:15   0.01   74.0    26   11.9   250    16.6    0.00 
 125   19:20   0.01   73.9    26   15.0   239    18.9    0.00 
 125   19:25   0.00   73.7    27   15.7   233    18.9    0.00 
 125   19:30   0.00   73.5    27   14.8   232    17.7    0.00 
 125   19:35   0.00   73.4    26   14.1   239    17.7    0.00 
 125   19:40   0.00   73.2    26   13.6   244    16.6    0.00 
 125   19:45   0.00   73.0    26   13.4   243    17.2    0.00 
 125   19:50   0.00   72.8    26   12.4   243    14.9    0.00 
 125   19:55   0.00   72.6    27   13.6   245    16.6    0.00 
 125   20:00   0.00   72.5    27   13.7   246    17.2    0.00 
 125   20:05   0.00   72.3    27   12.3   244    14.4    0.00 
 125   20:10   0.00   72.2    27   12.2   244    15.5    0.00 
 125   20:15   0.00   72.1    27   12.2   244    15.5    0.00 
 125   20:20   0.00   71.9    27   11.9   245    14.9    0.00 
 125   20:25   0.00   71.8    28   11.8   247    14.4    0.00 
 125   20:30   0.00   71.5    28   10.5   248    12.1    0.00 
 125   20:35   0.00   71.4    28   10.2   245    12.1    0.00 
 125   20:40   0.00   71.3    29   10.6   242    12.7    0.00 
 125   20:45   0.00   71.2    29   10.7   242    12.7    0.00 
 125   20:50   0.00   71.0    29    9.5   241    11.6    0.00 
 125   20:55   0.00   70.9    29    8.4   239    10.5    0.00 
 125   21:00   0.00   70.7    29    8.3   240     9.9    0.00 
 125   21:05   0.00   70.6    29    8.5   240    11.6    0.00 
 125   21:10   0.00   70.5    30    9.0   242    11.0    0.00 
 125   21:15   0.00   70.3    30    8.8   240    11.0    0.00 
 125   21:20   0.00   70.2    30    9.2   242    12.1    0.00 
 125   21:25   0.00   70.2    30    9.2   242    11.6    0.00 
 125   21:30   0.00   70.0    30    8.7   240    11.0    0.00 
 125   21:35   0.00   69.8    31    7.5   239     9.3    0.00 
 125   21:40   0.00   69.8    31    8.2   241    10.5    0.00 
 125   21:45   0.00   69.5    31    7.5   240     9.3    0.00 
 125   21:50   0.00   69.1    31    6.5   234     7.7    0.00 
 125   21:55   0.00   68.2    32    5.0   229     5.4    0.00 
 125   22:00   0.00   67.3    32    5.3   220     6.5    0.00 
 125   22:05   0.00   67.2    32    6.1   216     7.1    0.00 
 125   22:10   0.00   66.9    33    6.4   217     7.7    0.00 
 125   22:15   0.00   67.2    33    7.4   226     9.3    0.00 
 125   22:20   0.00   66.9    33    7.2   220     8.2    0.00 
 125   22:25   0.00   66.2    33    7.3   214     8.8    0.00 
 125   22:30   0.00   65.8    33    7.5   212     8.8    0.00 
 125   22:35   0.00   65.4    34    7.4   212     8.2    0.00 
 125   22:40   0.00   65.1    34    7.5   207     8.8    0.00 
 125   22:45   0.00   64.7    34    8.2   202     9.9    0.00 
 125   22:50   0.00   64.8    34    8.8   200    10.5    0.00 
 125   22:55   0.00   64.7    35    8.6   201     9.9    0.00 
 125   23:00   0.00   64.8    35    8.6   200    10.5    0.00 
 125   23:05   0.00   64.8    35    8.7   200    10.5    0.00 
 125   23:10   0.00   64.5    35    9.1   206    11.0    0.00 
 125   23:15   0.00   64.6    36   10.0   211    12.7    0.00 
 125   23:20   0.00   64.8    35    9.7   212    12.7    0.00 
 125   23:25   0.00   65.1    35    9.2   207    11.6    0.00 
 125   23:30   0.00   65.7    34   10.2   209    12.7    0.00 
 125   23:35   0.00   66.0    34   10.1   206    12.7    0.00 
 125   23:40   0.00   65.6    35   10.1   203    13.8    0.00 
 125   23:45   0.00   65.1    35   10.4   207    13.3    0.00 
 125   23:50   0.00   64.6    35   10.4   210    13.3    0.00 
 125   23:55   0.00   64.1    36   10.9   212    12.7    0.00 
 126    0:00   0.00   63.8    36   11.4   213    13.8    0.00 
 126    0:05   0.00   63.6    36   11.5   214    14.4    0.00 
 126    0:10   0.00   63.4    36   11.2   217    13.3    0.00 
 126    0:15   0.00   63.5    36   11.5   221    13.8    0.00 
 126    0:20   0.00   63.1    36    9.9   219    12.1    0.00 
 126    0:25   0.00   62.8    37    9.2   212    11.0    0.00 
 126    0:30   0.00   62.4    37    8.5   204    10.5    0.00 
 126    0:35   0.00   62.2    37    8.8   204     9.9    0.00 
 126    0:40   0.00   62.0    37    8.8   206     9.9    0.00 
 126    0:45   0.00   61.9    37    8.6   205     9.9    0.00 
 126    0:50   0.00   61.5    38    8.7   207    10.5    0.00 
 126    0:55   0.00   61.4    38    8.1   212    10.5    0.00 
 126    1:00   0.00   61.4    38    8.2   208    10.5    0.00 
 126    1:05   0.00   61.6    38    9.0   211    11.6    0.00 
 126    1:10   0.00   61.7    39    9.0   213    12.7    0.00 
 126    1:15   0.00   61.6    39    8.9   213    11.0    0.00 
 126    1:20   0.00   61.4    39    9.2   215    11.0    0.00 
 126    1:25   0.00   61.2    40    8.9   212    11.0    0.00 
 126    1:30   0.00   61.0    40    8.6   214    11.6    0.00 
 126    1:35   0.00   60.9    40    8.8   209    11.6    0.00 
 126    1:40   0.00   60.7    40    8.7   207     9.9    0.00 
 126    1:45   0.00   60.6    41    8.1   209    10.5    0.00 
 126    1:50   0.00   60.4    41    7.3   208     9.9    0.00 
 126    1:55   0.00   60.4    41    7.8   203     9.9    0.00 
 126    2:00   0.00   60.2    41    8.3   202     9.9    0.00 
 126    2:05   0.00   60.0    41    8.9   200    10.5    0.00 
 126    2:10   0.00   59.9    42    9.0   202    10.5    0.00 
 126    2:15   0.00   59.8    42    8.9   204    11.0    0.00 
 126    2:20   0.00   59.8    42   10.5   201    12.1    0.00 
 126    2:25   0.00   59.8    42   11.3   201    13.8    0.00 
 126    2:30   0.00   59.9    42   11.1   203    13.3    0.00 

Return to Spot Road graphs page.


Western Regional Climate Center,wrcc@dri.edu